Aérodrome :
LOGIN :

S'inscrire | Disclaimer

   EN    FR    IT 

 










Légende :    VFR   VFR Marginal   IFR   IFR Intensif   IFR Très Intensif
Visi : 
Plafond : 
>= 8 km
>= 3000ft
5 à 8 km
1000 à 3000 ft
1500m à 5 km
500 à 1000 ft
800 à 1500m
200 à 500 ft
< 800m
< 200 ft
Symboles :   Orages  Brouillard  Fortes neiges  Fortes précipitations  Vent > 20 kt
SIGMETs :   Divers  Orages  Givrage  Turbulence  Onde Orograph.  Cendres Volcan.







- Altitude de l'aérodrome : 266 ft
- Code IATA : NCL
- Voir les cartes d'approche


EGNT - Newcastle

DERNIER METAR :
  • 220950Z 06004KT 020V090 4000 BR OVC001 12/12 Q1004

METARs EXPIRÉS :
  • 220920Z VRB03KT 2500 BR OVC001 12/12 Q1004
  • 220850Z VRB03KT 5000 BR OVC002 12/12 Q1004
  • 220820Z VRB01KT 3800 R25/0375 BR OVC002 12/12 Q1004
  • 220750Z 28001KT 2500 R25/0325 BR OVC001 10/10 Q1004
  • 220720Z 00000KT 0200 R25/0225 FG BKN002 10/10 Q1004

TAF AMD TAF EGNT
Valide du 22 à 07h jusqu'au 23 à 06h UTC


220736Z 2207/2306 VRB03KT 0300 FG BKN001
TEMPO 2207/2209 2000 BR SCT002
BECMG 2209/2212 9999 NSW FEW010 SCT045
PROB30
TEMPO 2209/2212 +SHRA
TEMPO 2216/2221 7000 RA
PROB40
TEMPO 2217/2221 3000 +SHRA BKN014 BKN030CB
BECMG 2221/2224 26010KT
PROB30
TEMPO 2300/2306 BKN014
ATIS : +44 191 214 3400
Pas de NOTAMs connus pour ce terrain.



MET'MAP, la Météo Aéronautique d'un coup d'oeil ! - Copyright ORBIFLY Décembre 2007 - Disclaimer

ORBIFLY MET'MAP TEAM :

Programmation & Développement : Alexandra Zaïnal
Conception & Développement : Baudouin d'Aumeries
Co-Programmation & Développement : Marc-Olivier Méhu
Soutien technique & logistique : Manuel Goepfert

Contact : metmap@orbifly.com




SOURCES & CREDITS :

   NOAA